createdAt,value
2022-08-17T00:02:26.412Z,23.29
2022-08-17T00:04:54.802Z,23.35
2022-08-17T00:07:21.562Z,23.27
2022-08-17T00:09:48.224Z,23.21
2022-08-17T00:12:42.997Z,23.15
2022-08-17T00:15:02.283Z,23.11
2022-08-17T00:17:29.122Z,23.04
2022-08-17T00:19:55.759Z,23.07
2022-08-17T00:22:33.972Z,23.14
2022-08-17T00:25:10.462Z,22.96
2022-08-17T00:27:37.125Z,22.89
2022-08-17T00:30:09.682Z,22.98
2022-08-17T00:33:13.959Z,22.63
2022-08-17T00:35:27.797Z,22.40
2022-08-17T00:37:55.473Z,22.40
2022-08-17T00:40:24.784Z,22.45
2022-08-17T00:42:53.379Z,22.47
2022-08-17T00:45:22.592Z,22.56
2022-08-17T00:47:49.578Z,22.62
2022-08-17T00:50:18.951Z,22.70
2022-08-17T00:52:53.229Z,22.74
2022-08-17T00:55:20.919Z,22.77
2022-08-17T00:57:55.527Z,22.66
2022-08-17T01:00:29.676Z,22.62
2022-08-17T01:03:00.435Z,22.58
2022-08-17T01:05:29.533Z,22.53
2022-08-17T01:07:57.238Z,22.38
2022-08-17T01:10:59.689Z,22.38
2022-08-17T01:13:18.082Z,22.34
2022-08-17T01:16:04.782Z,22.27
2022-08-17T01:18:32.691Z,22.16
2022-08-17T01:21:05.166Z,22.10
2022-08-17T01:23:32.023Z,22.08
2022-08-17T01:26:01.854Z,22.15
2022-08-17T01:28:33.650Z,22.08
2022-08-17T01:31:18.630Z,22.05
2022-08-17T01:33:45.562Z,22.09
2022-08-17T01:36:12.221Z,22.10
2022-08-17T01:38:39.557Z,22.07
2022-08-17T01:41:11.719Z,22.13
2022-08-17T01:44:00.659Z,22.24
2022-08-17T01:46:32.046Z,22.30
2022-08-17T01:48:59.168Z,22.39
2022-08-17T01:51:32.433Z,22.42
2022-08-17T01:54:05.216Z,22.46
2022-08-17T01:56:35.060Z,22.47
2022-08-17T01:59:01.746Z,22.40
2022-08-17T02:01:31.128Z,22.25
2022-08-17T02:04:00.777Z,22.13
2022-08-17T02:06:30.636Z,22.13
2022-08-17T02:09:02.824Z,22.10
2022-08-17T02:11:32.358Z,21.99
2022-08-17T02:14:03.372Z,21.77
2022-08-17T02:16:36.856Z,21.79
2022-08-17T02:19:09.930Z,21.74
2022-08-17T02:21:38.354Z,21.79
2022-08-17T02:24:08.308Z,21.80
2022-08-17T02:26:35.220Z,21.78
2022-08-17T02:29:01.979Z,21.86
2022-08-17T02:31:30.036Z,21.94
2022-08-17T02:34:04.021Z,22.03
2022-08-17T02:36:35.605Z,22.06
2022-08-17T02:39:04.782Z,22.23
2022-08-17T02:41:31.711Z,22.14
2022-08-17T02:43:58.686Z,21.84
2022-08-17T02:46:25.849Z,21.84
2022-08-17T02:48:52.513Z,21.86
2022-08-17T02:51:20.033Z,21.87
2022-08-17T02:53:46.859Z,21.90
2022-08-17T02:56:13.632Z,21.90
2022-08-17T02:58:40.275Z,21.94
2022-08-17T03:01:09.189Z,21.93
2022-08-17T03:03:37.173Z,21.97
2022-08-17T03:06:04.558Z,22.00
2022-08-17T03:08:31.592Z,21.98
2022-08-17T03:10:58.125Z,21.92
2022-08-17T03:13:24.878Z,21.72
2022-08-17T03:15:51.788Z,21.76
2022-08-17T03:18:24.793Z,21.79
2022-08-17T03:20:57.890Z,21.84
2022-08-17T03:23:25.984Z,21.89
2022-08-17T03:25:54.310Z,21.84
2022-08-17T03:28:21.954Z,21.84
2022-08-17T03:30:49.310Z,21.80
2022-08-17T03:33:16.992Z,21.83
2022-08-17T03:35:44.381Z,21.85
2022-08-17T03:38:12.306Z,21.80
2022-08-17T03:40:57.135Z,21.78
2022-08-17T03:43:25.406Z,21.80
2022-08-17T03:46:20.731Z,21.76
2022-08-17T03:49:15.057Z,21.73
2022-08-17T03:52:18.928Z,21.71
2022-08-17T03:55:07.906Z,21.62
2022-08-17T03:57:35.386Z,21.69
2022-08-17T04:00:02.934Z,21.61
2022-08-17T04:02:38.733Z,21.60
2022-08-17T04:05:05.762Z,21.39
2022-08-17T04:07:32.305Z,21.37
2022-08-17T04:09:59.656Z,21.39
2022-08-17T04:12:30.813Z,21.37
2022-08-17T04:14:58.235Z,21.35
2022-08-17T04:17:29.378Z,21.33
2022-08-17T04:19:56.375Z,21.38
2022-08-17T04:22:30.099Z,21.13
2022-08-17T04:25:17.675Z,21.11
2022-08-17T04:27:44.513Z,21.02
2022-08-17T04:30:12.199Z,21.02
2022-08-17T04:33:04.850Z,21.02
2022-08-17T04:35:45.843Z,21.12
2022-08-17T04:38:17.957Z,21.17
2022-08-17T04:41:03.535Z,21.24
2022-08-17T04:43:32.808Z,21.23
2022-08-17T04:46:06.238Z,21.26
2022-08-17T04:48:42.853Z,21.18
2022-08-17T04:51:25.136Z,21.15
2022-08-17T04:53:55.756Z,21.18
2022-08-17T04:56:25.033Z,21.24
2022-08-17T04:58:54.040Z,21.26
2022-08-17T05:01:24.299Z,21.24
2022-08-17T05:03:56.499Z,21.24
2022-08-17T05:06:23.657Z,21.25
2022-08-17T05:08:50.244Z,21.28
2022-08-17T05:11:17.299Z,21.33
2022-08-17T05:13:44.790Z,21.37
2022-08-17T05:16:11.814Z,21.41
2022-08-17T05:18:39.053Z,21.41
2022-08-17T05:21:07.041Z,21.39
2022-08-17T05:23:42.990Z,21.40
2022-08-17T05:26:17.966Z,21.39
2022-08-17T05:28:59.401Z,21.45
2022-08-17T05:31:26.959Z,21.50
2022-08-17T05:33:53.701Z,21.43
2022-08-17T05:36:37.870Z,21.30
2022-08-17T05:39:07.570Z,21.40
2022-08-17T05:41:34.087Z,21.43
2022-08-17T05:44:00.697Z,21.45
2022-08-17T05:46:38.779Z,21.44
2022-08-17T05:49:11.103Z,21.50
2022-08-17T05:51:52.886Z,21.49
2022-08-17T05:54:49.114Z,21.52
2022-08-17T05:57:27.640Z,21.16
2022-08-17T06:00:03.043Z,21.00
2022-08-17T06:02:51.330Z,21.01
2022-08-17T06:05:45.704Z,21.09
2022-08-17T06:08:21.983Z,21.11
2022-08-17T06:11:20.101Z,21.11
2022-08-17T06:14:01.417Z,21.24
2022-08-17T06:16:35.450Z,21.25
2022-08-17T06:19:11.173Z,21.38
2022-08-17T06:21:41.603Z,21.31
2022-08-17T06:24:35.080Z,21.38
2022-08-17T06:27:12.452Z,21.46
2022-08-17T06:30:05.394Z,21.46
2022-08-17T06:32:32.125Z,21.45
2022-08-17T06:35:01.000Z,21.46
2022-08-17T06:37:37.199Z,21.49
2022-08-17T06:40:37.475Z,21.56
2022-08-17T06:43:22.471Z,21.65
2022-08-17T06:45:57.432Z,21.66
2022-08-17T06:48:56.447Z,21.65
2022-08-17T06:51:27.845Z,21.65
2022-08-17T06:54:05.225Z,21.68
2022-08-17T06:56:52.694Z,21.71
2022-08-17T06:59:54.193Z,21.77
2022-08-17T07:02:29.376Z,21.72
2022-08-17T07:05:09.819Z,21.65
2022-08-17T07:07:58.217Z,21.67
2022-08-17T07:10:26.107Z,21.63
2022-08-17T07:12:57.876Z,21.70
2022-08-17T07:15:38.829Z,21.76
2022-08-17T07:18:05.475Z,21.78
2022-08-17T07:20:33.420Z,21.72
2022-08-17T07:23:06.074Z,21.74
2022-08-17T07:25:33.027Z,21.71
2022-08-17T07:28:04.244Z,21.75
2022-08-17T07:30:46.839Z,21.80
2022-08-17T07:33:34.921Z,21.84
2022-08-17T07:36:01.635Z,21.91
2022-08-17T07:38:32.091Z,21.96
2022-08-17T07:41:02.758Z,21.95
2022-08-17T07:43:40.822Z,21.99
2022-08-17T07:46:41.160Z,22.01
2022-08-17T07:49:11.129Z,22.05
2022-08-17T07:51:43.767Z,22.04
2022-08-17T07:54:16.595Z,22.10
2022-08-17T07:56:47.781Z,22.08
2022-08-17T07:59:23.100Z,22.05
2022-08-17T08:01:57.932Z,21.99
2022-08-17T08:04:59.741Z,21.98
2022-08-17T08:07:34.774Z,22.01
2022-08-17T08:10:29.858Z,21.98
2022-08-17T08:13:14.549Z,21.99
2022-08-17T08:15:53.741Z,21.96
2022-08-17T08:18:54.916Z,22.01
2022-08-17T08:21:29.043Z,22.05
2022-08-17T08:24:07.990Z,22.14
2022-08-17T08:26:49.154Z,22.27
2022-08-17T08:29:38.179Z,22.32
2022-08-17T08:32:29.089Z,22.44
2022-08-17T08:35:10.368Z,22.46
2022-08-17T08:38:07.866Z,22.52
2022-08-17T08:41:02.410Z,22.54
2022-08-17T08:44:01.313Z,22.57
2022-08-17T08:46:47.055Z,22.62
2022-08-17T08:49:45.204Z,22.71
2022-08-17T08:52:48.165Z,22.73
2022-08-17T08:55:42.603Z,22.73
2022-08-17T08:58:41.262Z,22.73
2022-08-17T09:01:18.667Z,22.80
2022-08-17T09:03:53.352Z,22.81
2022-08-17T09:06:39.831Z,22.86
2022-08-17T09:09:18.876Z,22.89
2022-08-17T09:12:01.257Z,22.82
2022-08-17T09:14:46.721Z,22.84
2022-08-17T09:17:18.317Z,22.90
2022-08-17T09:20:11.198Z,22.90
2022-08-17T09:22:44.983Z,22.95
2022-08-17T09:25:28.353Z,23.04
2022-08-17T09:28:06.698Z,23.07
2022-08-17T09:30:45.635Z,23.03
2022-08-17T09:33:17.617Z,23.09
2022-08-17T09:36:08.456Z,23.07
2022-08-17T09:38:52.725Z,23.06
2022-08-17T09:41:33.490Z,23.13
2022-08-17T09:44:10.754Z,23.25
2022-08-17T09:47:01.402Z,23.29
2022-08-17T09:49:38.165Z,23.42
2022-08-17T09:52:18.623Z,23.48
2022-08-17T09:54:46.740Z,23.59
2022-08-17T09:57:32.516Z,23.70
2022-08-17T10:00:25.618Z,23.72
2022-08-17T10:03:16.287Z,23.89
2022-08-17T10:05:56.401Z,24.06
2022-08-17T10:08:42.306Z,24.11
2022-08-17T10:11:50.602Z,24.10
2022-08-17T10:14:46.893Z,24.18
2022-08-17T10:17:45.539Z,24.24
2022-08-17T10:20:17.548Z,24.20
2022-08-17T10:23:15.061Z,24.16
2022-08-17T10:26:04.668Z,24.15
2022-08-17T10:28:57.242Z,24.17
2022-08-17T10:31:35.897Z,24.16
2022-08-17T10:34:17.262Z,24.19
2022-08-17T10:37:05.684Z,24.20
2022-08-17T10:39:52.708Z,24.24
2022-08-17T10:42:48.908Z,24.26
2022-08-17T10:45:28.092Z,24.36
2022-08-17T10:48:28.390Z,24.50
2022-08-17T10:51:01.068Z,24.57
2022-08-17T10:53:33.652Z,24.64
2022-08-17T10:56:12.943Z,24.78
2022-08-17T10:58:47.477Z,24.94
2022-08-17T11:01:14.268Z,25.07
2022-08-17T11:03:54.978Z,25.17
2022-08-17T11:07:03.333Z,25.23
2022-08-17T11:09:44.942Z,25.17
2022-08-17T11:12:33.115Z,25.16
2022-08-17T11:15:22.175Z,25.14
2022-08-17T11:18:01.569Z,25.13
2022-08-17T11:20:31.187Z,25.13
2022-08-17T11:23:10.088Z,25.15
2022-08-17T11:25:41.898Z,25.17
2022-08-17T11:28:19.496Z,25.16
2022-08-17T11:30:50.825Z,25.12
2022-08-17T11:33:29.342Z,25.05
2022-08-17T11:36:19.135Z,25.06
2022-08-17T11:38:59.037Z,25.14
2022-08-17T11:41:55.225Z,25.14
2022-08-17T11:44:40.699Z,25.19
2022-08-17T11:48:09.024Z,25.21
2022-08-17T11:50:57.526Z,25.25
2022-08-17T11:53:37.154Z,25.32
2022-08-17T11:56:41.032Z,25.38
2022-08-17T11:59:46.074Z,25.60
2022-08-17T12:02:36.094Z,25.72
2022-08-17T12:05:14.790Z,25.80
2022-08-17T12:08:04.310Z,25.95
2022-08-17T12:10:35.417Z,25.95
2022-08-17T12:13:15.498Z,26.02
2022-08-17T12:15:48.750Z,26.03
2022-08-17T12:18:28.991Z,26.01
2022-08-17T12:21:24.988Z,26.06
2022-08-17T12:23:55.619Z,26.09
2022-08-17T12:26:27.122Z,26.24
2022-08-17T12:29:01.546Z,26.32
2022-08-17T12:31:35.067Z,26.22
2022-08-17T12:34:04.029Z,26.17
2022-08-17T12:36:32.607Z,26.06
2022-08-17T12:39:14.000Z,26.04
2022-08-17T12:41:45.188Z,26.01
2022-08-17T12:44:12.297Z,26.05
2022-08-17T12:47:00.625Z,26.08
2022-08-17T12:49:35.254Z,26.07
2022-08-17T12:52:13.977Z,26.04
2022-08-17T12:54:46.649Z,26.08
2022-08-17T12:57:20.647Z,26.18
2022-08-17T12:59:54.799Z,26.29
2022-08-17T13:02:37.631Z,26.43
2022-08-17T13:05:05.343Z,26.46
2022-08-17T13:07:44.727Z,26.51
2022-08-17T13:10:33.284Z,26.45
2022-08-17T13:13:05.227Z,26.46
2022-08-17T13:15:44.701Z,26.43
2022-08-17T13:18:36.584Z,26.44
2022-08-17T13:21:03.303Z,26.44
2022-08-17T13:23:31.343Z,26.44
2022-08-17T13:26:15.879Z,26.46
2022-08-17T13:28:51.683Z,26.46
2022-08-17T13:31:42.834Z,26.51
2022-08-17T13:34:33.407Z,26.73
2022-08-17T13:37:21.845Z,26.81
2022-08-17T13:39:49.965Z,26.76
2022-08-17T13:42:48.115Z,26.78
2022-08-17T13:45:35.970Z,26.75
2022-08-17T13:48:12.364Z,26.76
2022-08-17T13:51:02.606Z,26.75
2022-08-17T13:53:36.382Z,26.72
2022-08-17T13:56:33.521Z,26.71
2022-08-17T13:59:12.320Z,26.61
2022-08-17T14:01:53.417Z,26.55
2022-08-17T14:04:31.814Z,26.56
2022-08-17T14:07:03.051Z,26.49
2022-08-17T14:09:37.357Z,26.45
2022-08-17T14:12:10.592Z,26.44
2022-08-17T14:14:37.730Z,26.45
2022-08-17T14:17:04.531Z,26.43
2022-08-17T14:19:31.170Z,26.39
2022-08-17T14:21:59.073Z,26.36
2022-08-17T14:24:29.213Z,26.43
2022-08-17T14:26:56.808Z,26.44
2022-08-17T14:29:25.809Z,26.42
2022-08-17T14:31:54.516Z,26.45
2022-08-17T14:34:22.746Z,26.45
2022-08-17T14:36:49.446Z,26.42
2022-08-17T14:39:16.725Z,26.38
2022-08-17T14:41:43.663Z,26.35
2022-08-17T14:44:13.763Z,26.35
2022-08-17T14:46:42.129Z,26.34
2022-08-17T14:49:12.498Z,26.36
2022-08-17T14:51:43.580Z,26.32
2022-08-17T14:54:33.370Z,26.28
2022-08-17T14:57:22.275Z,26.27
2022-08-17T14:59:45.911Z,26.18
2022-08-17T15:02:13.683Z,26.13
2022-08-17T15:04:45.372Z,26.16
2022-08-17T15:07:12.438Z,26.12
2022-08-17T15:09:39.223Z,26.07
2022-08-17T15:12:09.177Z,26.10
2022-08-17T15:14:36.528Z,26.07
2022-08-17T15:17:04.258Z,26.01
2022-08-17T15:19:31.093Z,26.00
2022-08-17T15:21:57.829Z,25.97
2022-08-17T15:24:24.689Z,25.95
2022-08-17T15:26:51.611Z,25.78
2022-08-17T15:29:18.350Z,25.72
2022-08-17T15:31:45.027Z,25.86
2022-08-17T15:34:11.881Z,25.53
2022-08-17T15:36:38.912Z,25.72
2022-08-17T15:39:15.808Z,25.50
2022-08-17T15:41:47.340Z,25.43
2022-08-17T15:44:30.086Z,25.74
2022-08-17T15:46:59.524Z,25.74
2022-08-17T15:49:26.182Z,25.41
2022-08-17T15:51:52.948Z,25.48
2022-08-17T15:54:22.882Z,25.69
2022-08-17T15:56:50.696Z,25.36
2022-08-17T15:59:17.347Z,25.69
2022-08-17T16:03:01.483Z,25.55
2022-08-17T16:04:31.887Z,25.71
2022-08-17T16:06:59.630Z,25.68
2022-08-17T16:09:26.302Z,25.60
2022-08-17T16:11:55.457Z,25.56
2022-08-17T16:14:24.263Z,25.54
2022-08-17T16:16:50.987Z,25.43
2022-08-17T16:19:17.603Z,25.48
2022-08-17T16:21:44.156Z,25.47
2022-08-17T16:24:13.655Z,25.42
2022-08-17T16:26:42.488Z,25.41
2022-08-17T16:29:09.173Z,25.38
2022-08-17T16:31:37.564Z,25.29
2022-08-17T16:34:17.924Z,25.05
2022-08-17T16:36:55.491Z,24.71
2022-08-17T16:39:27.634Z,24.38
2022-08-17T16:41:55.905Z,23.74
2022-08-17T16:44:22.726Z,23.07
2022-08-17T16:46:50.265Z,22.73
2022-08-17T16:49:24.395Z,22.23
2022-08-17T16:52:04.263Z,22.01
2022-08-17T16:54:30.829Z,22.17
2022-08-17T16:56:57.453Z,22.22
2022-08-17T16:59:40.280Z,22.23
2022-08-17T17:02:13.611Z,21.88
2022-08-17T17:04:48.015Z,22.04
2022-08-17T17:07:36.190Z,21.96
2022-08-17T17:10:08.333Z,21.87
2022-08-17T17:13:02.118Z,21.78
2022-08-17T17:15:28.445Z,21.42
2022-08-17T17:18:06.975Z,21.27
2022-08-17T17:20:47.722Z,21.23
2022-08-17T17:23:23.275Z,21.17
2022-08-17T17:26:17.076Z,20.82
2022-08-17T17:29:00.924Z,20.51
2022-08-17T17:31:37.598Z,20.59
2022-08-17T17:34:08.798Z,20.78
2022-08-17T17:36:50.759Z,20.72
2022-08-17T17:39:20.336Z,20.78
2022-08-17T17:41:57.883Z,20.52
2022-08-17T17:44:30.052Z,20.51
2022-08-17T17:46:59.465Z,20.64
2022-08-17T17:49:33.395Z,20.80
2022-08-17T17:52:22.608Z,20.78
2022-08-17T17:55:04.337Z,20.77
2022-08-17T17:57:37.530Z,20.57
2022-08-17T18:00:16.357Z,20.76
2022-08-17T18:03:20.690Z,20.90
2022-08-17T18:05:50.390Z,21.03
2022-08-17T18:08:48.996Z,21.08
2022-08-17T18:11:54.615Z,21.08
2022-08-17T18:14:38.921Z,21.23
2022-08-17T18:17:05.883Z,21.35
2022-08-17T18:19:32.907Z,21.38
2022-08-17T18:22:20.227Z,21.22
2022-08-17T18:24:54.070Z,21.32
2022-08-17T18:27:33.954Z,21.27
2022-08-17T18:30:29.793Z,21.39
2022-08-17T18:33:24.559Z,21.47
2022-08-17T18:35:58.791Z,21.52
2022-08-17T18:38:34.651Z,21.58
2022-08-17T18:41:19.200Z,21.68
2022-08-17T18:44:02.436Z,21.71
2022-08-17T18:46:36.688Z,21.54
2022-08-17T18:49:08.482Z,21.74
2022-08-17T18:51:42.869Z,21.60
2022-08-17T18:54:22.178Z,21.58
2022-08-17T18:56:51.484Z,21.48
2022-08-17T18:59:35.339Z,21.46
2022-08-17T19:02:28.275Z,21.52
2022-08-17T19:05:07.960Z,21.55
2022-08-17T19:07:36.823Z,21.52
2022-08-17T19:10:31.373Z,21.53
2022-08-17T19:13:12.315Z,21.42
2022-08-17T19:16:14.359Z,21.55
2022-08-17T19:18:43.455Z,21.58
2022-08-17T19:21:19.652Z,21.59
2022-08-17T19:23:59.086Z,21.58
2022-08-17T19:26:53.398Z,21.58
2022-08-17T19:29:22.424Z,21.57
2022-08-17T19:31:49.971Z,21.57
2022-08-17T19:34:33.323Z,21.43
2022-08-17T19:37:18.307Z,21.41
2022-08-17T19:39:48.056Z,21.38
2022-08-17T19:42:49.683Z,21.36
2022-08-17T19:45:42.184Z,21.33
2022-08-17T19:48:25.728Z,21.23
2022-08-17T19:50:53.151Z,21.17
2022-08-17T19:53:54.127Z,21.10
2022-08-17T19:56:35.534Z,20.98
2022-08-17T19:59:07.209Z,20.94
2022-08-17T20:01:44.273Z,20.88
2022-08-17T20:04:31.865Z,20.99
2022-08-17T20:07:28.482Z,21.08
2022-08-17T20:10:05.543Z,21.08
2022-08-17T20:12:38.436Z,21.09
2022-08-17T20:15:07.871Z,20.93
2022-08-17T20:17:38.658Z,20.87
2022-08-17T20:20:43.876Z,20.65
2022-08-17T20:23:35.291Z,20.60
2022-08-17T20:26:22.179Z,20.56
2022-08-17T20:29:08.261Z,20.56
2022-08-17T20:31:50.293Z,20.60
2022-08-17T20:34:25.715Z,20.73
2022-08-17T20:37:03.822Z,20.67
2022-08-17T20:39:56.674Z,20.71
2022-08-17T20:42:23.534Z,20.75
2022-08-17T20:44:54.111Z,20.84
2022-08-17T20:47:31.933Z,20.95
2022-08-17T20:50:08.093Z,20.95
2022-08-17T20:52:41.290Z,20.94
2022-08-17T20:55:09.422Z,20.93
2022-08-17T20:57:36.075Z,21.03
2022-08-17T21:00:19.038Z,21.01
2022-08-17T21:02:51.310Z,20.97
2022-08-17T21:06:19.608Z,21.05
2022-08-17T21:08:55.192Z,20.95
2022-08-17T21:11:57.001Z,20.89
2022-08-17T21:14:38.050Z,20.82
2022-08-17T21:17:17.722Z,20.78
2022-08-17T21:20:10.744Z,20.75
2022-08-17T21:23:03.368Z,20.55
2022-08-17T21:26:02.974Z,20.49
2022-08-17T21:29:31.779Z,20.47
2022-08-17T21:31:59.398Z,20.55
2022-08-17T21:34:36.472Z,20.52
2022-08-17T21:37:28.545Z,20.62
2022-08-17T21:40:18.630Z,20.60
2022-08-17T21:42:47.720Z,20.41
2022-08-17T21:45:35.607Z,20.27
2022-08-17T21:48:13.978Z,20.22
2022-08-17T21:50:44.217Z,20.17
2022-08-17T21:53:27.049Z,20.23
2022-08-17T21:55:57.727Z,20.17
2022-08-17T21:58:32.319Z,20.11
2022-08-17T22:01:26.969Z,20.02
2022-08-17T22:04:00.012Z,20.09
2022-08-17T22:06:36.932Z,20.18
2022-08-17T22:09:09.607Z,20.19
2022-08-17T22:11:54.795Z,20.20
2022-08-17T22:14:51.519Z,20.28
2022-08-17T22:17:36.871Z,20.25
2022-08-17T22:20:08.143Z,20.21
2022-08-17T22:23:08.876Z,20.22
2022-08-17T22:25:38.933Z,20.26
2022-08-17T22:28:11.485Z,20.16
2022-08-17T22:30:42.585Z,20.22
2022-08-17T22:33:31.526Z,20.32
2022-08-17T22:36:35.173Z,20.42
2022-08-17T22:39:26.306Z,20.49
2022-08-17T22:42:02.373Z,20.46
2022-08-17T22:44:33.250Z,20.50
2022-08-17T22:47:26.470Z,20.51
2022-08-17T22:49:57.767Z,20.68
2022-08-17T22:53:02.985Z,20.64
2022-08-17T22:55:49.977Z,20.60
2022-08-17T22:58:38.658Z,20.75
2022-08-17T23:01:33.216Z,20.64
2022-08-17T23:04:06.959Z,20.54
2022-08-17T23:06:36.926Z,20.51
2022-08-17T23:09:05.898Z,20.53
2022-08-17T23:11:48.986Z,20.49
2022-08-17T23:14:19.636Z,20.51
2022-08-17T23:16:48.658Z,20.51
2022-08-17T23:19:18.605Z,20.36
2022-08-17T23:21:45.755Z,20.25
2022-08-17T23:24:21.580Z,20.35
2022-08-17T23:26:48.374Z,20.36
2022-08-17T23:29:14.948Z,20.38
2022-08-17T23:31:41.748Z,20.44
2022-08-17T23:34:13.128Z,20.43
2022-08-17T23:36:39.837Z,20.37
2022-08-17T23:39:07.089Z,20.40
2022-08-17T23:41:38.614Z,20.37
2022-08-17T23:44:06.504Z,20.37
2022-08-17T23:46:34.421Z,20.35
2022-08-17T23:49:01.160Z,20.17
2022-08-17T23:51:35.619Z,20.04
2022-08-17T23:54:12.606Z,19.93
2022-08-17T23:56:57.283Z,19.97
2022-08-17T23:59:23.952Z,20.02
